sensor_id;sensor_type;location;lat;lon;timestamp;P1;durP1;ratioP1;P2;durP2;ratioP2
65552;SDS011;72126;51.560;14.368;2023-12-20T00:01:04;2.13;;;1.67;;
65552;SDS011;72126;51.560;14.368;2023-12-20T00:03:29;3.07;;;1.83;;
65552;SDS011;72126;51.560;14.368;2023-12-20T00:05:55;3.30;;;2.00;;
65552;SDS011;72126;51.560;14.368;2023-12-20T00:08:20;1.95;;;1.60;;
65552;SDS011;72126;51.560;14.368;2023-12-20T00:10:45;3.33;;;2.30;;
65552;SDS011;72126;51.560;14.368;2023-12-20T00:13:10;3.03;;;2.30;;
65552;SDS011;72126;51.560;14.368;2023-12-20T00:15:36;3.45;;;2.20;;
65552;SDS011;72126;51.560;14.368;2023-12-20T00:18:02;2.65;;;1.80;;
65552;SDS011;72126;51.560;14.368;2023-12-20T00:20:27;2.72;;;1.95;;
65552;SDS011;72126;51.560;14.368;2023-12-20T00:22:55;2.75;;;1.90;;
65552;SDS011;72126;51.560;14.368;2023-12-20T00:25:21;3.42;;;1.92;;
65552;SDS011;72126;51.560;14.368;2023-12-20T00:27:46;2.72;;;1.88;;
65552;SDS011;72126;51.560;14.368;2023-12-20T00:30:12;3.10;;;2.00;;
65552;SDS011;72126;51.560;14.368;2023-12-20T00:32:37;2.22;;;1.83;;
65552;SDS011;72126;51.560;14.368;2023-12-20T00:35:03;2.28;;;1.67;;
65552;SDS011;72126;51.560;14.368;2023-12-20T00:37:28;3.25;;;1.92;;
65552;SDS011;72126;51.560;14.368;2023-12-20T00:39:53;3.00;;;2.10;;
65552;SDS011;72126;51.560;14.368;2023-12-20T00:42:19;3.22;;;2.03;;
65552;SDS011;72126;51.560;14.368;2023-12-20T00:44:44;2.40;;;1.77;;
65552;SDS011;72126;51.560;14.368;2023-12-20T00:47:09;2.80;;;2.10;;
65552;SDS011;72126;51.560;14.368;2023-12-20T00:49:34;2.67;;;1.70;;
65552;SDS011;72126;51.560;14.368;2023-12-20T00:51:59;2.93;;;1.77;;
65552;SDS011;72126;51.560;14.368;2023-12-20T00:54:24;2.60;;;1.90;;
65552;SDS011;72126;51.560;14.368;2023-12-20T00:56:50;2.73;;;1.80;;
65552;SDS011;72126;51.560;14.368;2023-12-20T00:59:16;2.53;;;1.83;;
65552;SDS011;72126;51.560;14.368;2023-12-20T01:01:41;3.45;;;1.92;;
65552;SDS011;72126;51.560;14.368;2023-12-20T01:04:07;4.18;;;2.17;;
65552;SDS011;72126;51.560;14.368;2023-12-20T01:06:32;2.63;;;1.90;;
65552;SDS011;72126;51.560;14.368;2023-12-20T01:08:57;3.80;;;1.90;;
65552;SDS011;72126;51.560;14.368;2023-12-20T01:11:22;2.53;;;2.00;;
65552;SDS011;72126;51.560;14.368;2023-12-20T01:13:47;3.10;;;1.85;;
65552;SDS011;72126;51.560;14.368;2023-12-20T01:16:13;3.07;;;1.73;;
65552;SDS011;72126;51.560;14.368;2023-12-20T01:18:38;2.70;;;1.90;;
65552;SDS011;72126;51.560;14.368;2023-12-20T01:21:03;2.53;;;1.80;;
65552;SDS011;72126;51.560;14.368;2023-12-20T01:23:29;3.50;;;1.73;;
65552;SDS011;72126;51.560;14.368;2023-12-20T01:25:54;2.60;;;1.70;;
65552;SDS011;72126;51.560;14.368;2023-12-20T01:28:19;2.08;;;1.65;;
65552;SDS011;72126;51.560;14.368;2023-12-20T01:30:45;2.13;;;1.57;;
65552;SDS011;72126;51.560;14.368;2023-12-20T01:33:10;2.93;;;1.50;;
65552;SDS011;72126;51.560;14.368;2023-12-20T01:35:35;2.47;;;1.88;;
65552;SDS011;72126;51.560;14.368;2023-12-20T01:38:00;1.83;;;1.40;;
65552;SDS011;72126;51.560;14.368;2023-12-20T01:40:26;1.85;;;1.50;;
65552;SDS011;72126;51.560;14.368;2023-12-20T01:43:00;2.30;;;1.70;;
65552;SDS011;72126;51.560;14.368;2023-12-20T01:45:27;2.60;;;1.70;;
65552;SDS011;72126;51.560;14.368;2023-12-20T01:47:53;2.08;;;1.60;;
65552;SDS011;72126;51.560;14.368;2023-12-20T01:50:19;2.35;;;1.80;;
65552;SDS011;72126;51.560;14.368;2023-12-20T01:52:45;2.10;;;1.80;;
65552;SDS011;72126;51.560;14.368;2023-12-20T01:55:11;1.77;;;1.40;;
65552;SDS011;72126;51.560;14.368;2023-12-20T01:57:36;3.33;;;1.85;;
65552;SDS011;72126;51.560;14.368;2023-12-20T02:00:01;1.63;;;1.50;;
65552;SDS011;72126;51.560;14.368;2023-12-20T02:02:27;2.63;;;1.80;;
65552;SDS011;72126;51.560;14.368;2023-12-20T02:04:54;2.50;;;1.45;;
65552;SDS011;72126;51.560;14.368;2023-12-20T02:07:19;2.30;;;1.50;;
65552;SDS011;72126;51.560;14.368;2023-12-20T02:09:45;1.85;;;1.52;;
65552;SDS011;72126;51.560;14.368;2023-12-20T02:12:11;2.35;;;1.50;;
65552;SDS011;72126;51.560;14.368;2023-12-20T02:14:36;2.30;;;1.58;;
65552;SDS011;72126;51.560;14.368;2023-12-20T02:17:01;1.70;;;1.50;;
65552;SDS011;72126;51.560;14.368;2023-12-20T02:19:26;2.13;;;1.40;;
65552;SDS011;72126;51.560;14.368;2023-12-20T02:22:04;2.23;;;1.40;;
65552;SDS011;72126;51.560;14.368;2023-12-20T02:24:30;2.10;;;1.50;;
65552;SDS011;72126;51.560;14.368;2023-12-20T02:26:55;1.67;;;1.47;;
65552;SDS011;72126;51.560;14.368;2023-12-20T02:29:21;1.60;;;1.40;;
65552;SDS011;72126;51.560;14.368;2023-12-20T02:31:46;1.90;;;1.60;;
65552;SDS011;72126;51.560;14.368;2023-12-20T02:34:11;2.53;;;1.60;;
65552;SDS011;72126;51.560;14.368;2023-12-20T02:36:36;2.83;;;1.60;;
65552;SDS011;72126;51.560;14.368;2023-12-20T02:39:01;1.83;;;1.47;;
65552;SDS011;72126;51.560;14.368;2023-12-20T02:41:26;1.65;;;1.38;;
65552;SDS011;72126;51.560;14.368;2023-12-20T02:43:52;1.60;;;1.20;;
65552;SDS011;72126;51.560;14.368;2023-12-20T02:46:17;2.03;;;1.60;;
65552;SDS011;72126;51.560;14.368;2023-12-20T02:48:43;1.95;;;1.50;;
65552;SDS011;72126;51.560;14.368;2023-12-20T02:51:11;1.50;;;1.25;;
65552;SDS011;72126;51.560;14.368;2023-12-20T02:53:36;1.88;;;1.60;;
65552;SDS011;72126;51.560;14.368;2023-12-20T02:56:01;2.47;;;1.47;;
65552;SDS011;72126;51.560;14.368;2023-12-20T02:58:26;2.92;;;1.58;;
65552;SDS011;72126;51.560;14.368;2023-12-20T03:00:54;1.80;;;1.50;;
65552;SDS011;72126;51.560;14.368;2023-12-20T03:03:19;1.75;;;1.38;;
65552;SDS011;72126;51.560;14.368;2023-12-20T03:05:45;2.43;;;1.50;;
65552;SDS011;72126;51.560;14.368;2023-12-20T03:08:10;2.92;;;1.95;;
65552;SDS011;72126;51.560;14.368;2023-12-20T03:10:35;1.80;;;1.50;;
65552;SDS011;72126;51.560;14.368;2023-12-20T03:13:00;1.77;;;1.60;;
65552;SDS011;72126;51.560;14.368;2023-12-20T03:15:25;1.97;;;1.67;;
65552;SDS011;72126;51.560;14.368;2023-12-20T03:17:51;2.47;;;1.70;;
65552;SDS011;72126;51.560;14.368;2023-12-20T03:20:16;2.00;;;1.60;;
65552;SDS011;72126;51.560;14.368;2023-12-20T03:22:41;1.20;;;1.10;;
65552;SDS011;72126;51.560;14.368;2023-12-20T03:25:06;1.43;;;1.30;;
65552;SDS011;72126;51.560;14.368;2023-12-20T03:27:32;2.35;;;1.50;;
65552;SDS011;72126;51.560;14.368;2023-12-20T03:29:57;1.73;;;1.30;;
65552;SDS011;72126;51.560;14.368;2023-12-20T03:32:22;1.93;;;1.47;;
65552;SDS011;72126;51.560;14.368;2023-12-20T03:34:47;1.60;;;1.30;;
65552;SDS011;72126;51.560;14.368;2023-12-20T03:37:12;2.27;;;1.50;;
65552;SDS011;72126;51.560;14.368;2023-12-20T03:39:38;2.10;;;1.50;;
65552;SDS011;72126;51.560;14.368;2023-12-20T03:42:03;1.70;;;1.50;;
65552;SDS011;72126;51.560;14.368;2023-12-20T03:44:28;2.00;;;1.48;;
65552;SDS011;72126;51.560;14.368;2023-12-20T03:46:53;2.03;;;1.40;;
65552;SDS011;72126;51.560;14.368;2023-12-20T03:49:19;1.50;;;1.40;;
65552;SDS011;72126;51.560;14.368;2023-12-20T03:51:44;1.77;;;1.43;;
65552;SDS011;72126;51.560;14.368;2023-12-20T03:54:09;1.50;;;1.23;;
65552;SDS011;72126;51.560;14.368;2023-12-20T03:56:34;1.40;;;1.30;;
65552;SDS011;72126;51.560;14.368;2023-12-20T03:58:59;1.20;;;1.10;;
65552;SDS011;72126;51.560;14.368;2023-12-20T04:01:24;1.83;;;1.30;;
65552;SDS011;72126;51.560;14.368;2023-12-20T04:03:50;1.63;;;1.40;;
65552;SDS011;72126;51.560;14.368;2023-12-20T04:06:17;1.87;;;1.47;;
65552;SDS011;72126;51.560;14.368;2023-12-20T04:08:42;2.08;;;1.48;;
65552;SDS011;72126;51.560;14.368;2023-12-20T04:11:08;1.80;;;1.20;;
65552;SDS011;72126;51.560;14.368;2023-12-20T04:13:33;1.33;;;1.20;;
65552;SDS011;72126;51.560;14.368;2023-12-20T04:15:58;1.60;;;1.30;;
65552;SDS011;72126;51.560;14.368;2023-12-20T04:18:23;1.70;;;1.27;;
65552;SDS011;72126;51.560;14.368;2023-12-20T04:20:48;1.57;;;1.23;;
65552;SDS011;72126;51.560;14.368;2023-12-20T04:23:13;1.50;;;1.27;;
65552;SDS011;72126;51.560;14.368;2023-12-20T04:25:39;1.37;;;1.10;;
65552;SDS011;72126;51.560;14.368;2023-12-20T04:28:04;1.57;;;1.30;;
65552;SDS011;72126;51.560;14.368;2023-12-20T04:30:29;1.58;;;1.27;;
65552;SDS011;72126;51.560;14.368;2023-12-20T04:32:54;1.53;;;1.27;;
65552;SDS011;72126;51.560;14.368;2023-12-20T04:35:19;1.53;;;1.30;;
65552;SDS011;72126;51.560;14.368;2023-12-20T04:37:45;1.60;;;1.33;;
65552;SDS011;72126;51.560;14.368;2023-12-20T04:40:10;1.48;;;1.27;;
65552;SDS011;72126;51.560;14.368;2023-12-20T04:42:35;1.85;;;1.30;;
65552;SDS011;72126;51.560;14.368;2023-12-20T04:45:00;2.00;;;1.33;;
65552;SDS011;72126;51.560;14.368;2023-12-20T04:47:25;1.50;;;1.40;;
65552;SDS011;72126;51.560;14.368;2023-12-20T04:49:51;2.00;;;1.37;;
65552;SDS011;72126;51.560;14.368;2023-12-20T04:52:16;2.77;;;1.30;;
65552;SDS011;72126;51.560;14.368;2023-12-20T04:54:41;1.60;;;1.10;;
65552;SDS011;72126;51.560;14.368;2023-12-20T04:57:09;1.47;;;1.20;;
65552;SDS011;72126;51.560;14.368;2023-12-20T04:59:34;1.80;;;1.20;;
65552;SDS011;72126;51.560;14.368;2023-12-20T05:02:00;1.70;;;1.40;;
65552;SDS011;72126;51.560;14.368;2023-12-20T05:04:25;1.70;;;1.20;;
65552;SDS011;72126;51.560;14.368;2023-12-20T05:06:50;1.50;;;1.07;;
65552;SDS011;72126;51.560;14.368;2023-12-20T05:09:15;1.23;;;1.10;;
65552;SDS011;72126;51.560;14.368;2023-12-20T05:11:40;1.50;;;1.20;;
65552;SDS011;72126;51.560;14.368;2023-12-20T05:14:05;1.83;;;1.27;;
65552;SDS011;72126;51.560;14.368;2023-12-20T05:16:31;1.47;;;1.30;;
65552;SDS011;72126;51.560;14.368;2023-12-20T05:18:56;1.40;;;1.23;;
65552;SDS011;72126;51.560;14.368;2023-12-20T05:21:21;1.43;;;1.20;;
65552;SDS011;72126;51.560;14.368;2023-12-20T05:23:46;1.17;;;1.00;;
65552;SDS011;72126;51.560;14.368;2023-12-20T05:26:11;2.27;;;1.03;;
65552;SDS011;72126;51.560;14.368;2023-12-20T05:28:37;1.57;;;1.47;;
65552;SDS011;72126;51.560;14.368;2023-12-20T05:31:02;0.90;;;0.90;;
65552;SDS011;72126;51.560;14.368;2023-12-20T05:33:27;1.20;;;1.00;;
65552;SDS011;72126;51.560;14.368;2023-12-20T05:35:52;1.47;;;1.20;;
65552;SDS011;72126;51.560;14.368;2023-12-20T05:38:17;1.40;;;1.00;;
65552;SDS011;72126;51.560;14.368;2023-12-20T05:40:43;1.93;;;1.17;;
65552;SDS011;72126;51.560;14.368;2023-12-20T05:43:08;1.30;;;1.17;;
65552;SDS011;72126;51.560;14.368;2023-12-20T05:45:33;1.17;;;0.90;;
65552;SDS011;72126;51.560;14.368;2023-12-20T05:47:58;1.13;;;1.00;;
65552;SDS011;72126;51.560;14.368;2023-12-20T05:50:23;1.60;;;1.00;;
65552;SDS011;72126;51.560;14.368;2023-12-20T05:52:49;1.15;;;1.00;;
65552;SDS011;72126;51.560;14.368;2023-12-20T05:55:14;1.20;;;1.00;;
65552;SDS011;72126;51.560;14.368;2023-12-20T05:57:39;0.97;;;0.90;;
65552;SDS011;72126;51.560;14.368;2023-12-20T06:00:04;1.10;;;1.00;;
65552;SDS011;72126;51.560;14.368;2023-12-20T06:02:30;1.05;;;0.95;;
65552;SDS011;72126;51.560;14.368;2023-12-20T06:04:55;1.27;;;1.00;;
65552;SDS011;72126;51.560;14.368;2023-12-20T06:07:20;0.80;;;0.80;;
65552;SDS011;72126;51.560;14.368;2023-12-20T06:09:46;1.05;;;0.93;;
65552;SDS011;72126;51.560;14.368;2023-12-20T06:12:11;1.03;;;0.93;;
65552;SDS011;72126;51.560;14.368;2023-12-20T06:14:36;1.97;;;1.30;;
65552;SDS011;72126;51.560;14.368;2023-12-20T06:17:01;1.30;;;1.00;;
65552;SDS011;72126;51.560;14.368;2023-12-20T06:19:27;1.00;;;0.90;;
65552;SDS011;72126;51.560;14.368;2023-12-20T06:21:52;1.10;;;0.90;;
65552;SDS011;72126;51.560;14.368;2023-12-20T06:24:17;1.10;;;1.00;;
65552;SDS011;72126;51.560;14.368;2023-12-20T06:26:43;1.05;;;0.95;;
65552;SDS011;72126;51.560;14.368;2023-12-20T06:29:08;1.37;;;1.20;;
65552;SDS011;72126;51.560;14.368;2023-12-20T06:31:33;0.90;;;0.90;;
65552;SDS011;72126;51.560;14.368;2023-12-20T06:33:58;1.10;;;0.97;;
65552;SDS011;72126;51.560;14.368;2023-12-20T06:36:24;1.33;;;1.10;;
65552;SDS011;72126;51.560;14.368;2023-12-20T06:38:49;1.07;;;0.97;;
65552;SDS011;72126;51.560;14.368;2023-12-20T06:41:15;1.03;;;0.90;;
65552;SDS011;72126;51.560;14.368;2023-12-20T06:43:40;1.98;;;1.00;;
65552;SDS011;72126;51.560;14.368;2023-12-20T06:46:06;1.00;;;0.90;;
65552;SDS011;72126;51.560;14.368;2023-12-20T06:48:31;0.90;;;0.90;;
65552;SDS011;72126;51.560;14.368;2023-12-20T06:50:56;0.90;;;0.85;;
65552;SDS011;72126;51.560;14.368;2023-12-20T06:53:22;1.25;;;1.00;;
65552;SDS011;72126;51.560;14.368;2023-12-20T06:55:47;1.03;;;0.93;;
65552;SDS011;72126;51.560;14.368;2023-12-20T06:58:13;1.23;;;0.90;;
65552;SDS011;72126;51.560;14.368;2023-12-20T07:00:38;1.10;;;1.00;;
65552;SDS011;72126;51.560;14.368;2023-12-20T07:03:03;1.53;;;1.20;;
65552;SDS011;72126;51.560;14.368;2023-12-20T07:05:28;1.15;;;1.02;;
65552;SDS011;72126;51.560;14.368;2023-12-20T07:07:54;1.13;;;1.00;;
65552;SDS011;72126;51.560;14.368;2023-12-20T07:10:19;0.93;;;0.93;;
65552;SDS011;72126;51.560;14.368;2023-12-20T07:12:44;1.38;;;1.00;;
65552;SDS011;72126;51.560;14.368;2023-12-20T07:15:13;1.20;;;1.10;;
65552;SDS011;72126;51.560;14.368;2023-12-20T07:17:38;0.90;;;0.90;;
65552;SDS011;72126;51.560;14.368;2023-12-20T07:20:04;1.03;;;0.80;;
65552;SDS011;72126;51.560;14.368;2023-12-20T07:22:30;1.35;;;1.10;;
65552;SDS011;72126;51.560;14.368;2023-12-20T07:24:55;1.25;;;1.00;;
65552;SDS011;72126;51.560;14.368;2023-12-20T07:27:20;1.07;;;0.87;;
65552;SDS011;72126;51.560;14.368;2023-12-20T07:29:45;1.30;;;1.00;;
65552;SDS011;72126;51.560;14.368;2023-12-20T07:32:11;1.42;;;1.00;;
65552;SDS011;72126;51.560;14.368;2023-12-20T07:34:36;1.27;;;1.00;;
65552;SDS011;72126;51.560;14.368;2023-12-20T07:37:01;1.00;;;0.90;;
65552;SDS011;72126;51.560;14.368;2023-12-20T07:39:26;1.90;;;1.00;;
65552;SDS011;72126;51.560;14.368;2023-12-20T07:41:51;1.10;;;1.00;;
65552;SDS011;72126;51.560;14.368;2023-12-20T07:44:16;1.20;;;1.10;;
65552;SDS011;72126;51.560;14.368;2023-12-20T07:46:42;1.20;;;0.90;;
65552;SDS011;72126;51.560;14.368;2023-12-20T07:49:07;1.42;;;1.15;;
65552;SDS011;72126;51.560;14.368;2023-12-20T07:51:32;1.20;;;1.10;;
65552;SDS011;72126;51.560;14.368;2023-12-20T07:53:57;1.67;;;1.00;;
65552;SDS011;72126;51.560;14.368;2023-12-20T07:56:22;1.10;;;1.00;;
65552;SDS011;72126;51.560;14.368;2023-12-20T07:58:48;1.07;;;0.97;;
65552;SDS011;72126;51.560;14.368;2023-12-20T08:01:13;1.03;;;0.93;;
65552;SDS011;72126;51.560;14.368;2023-12-20T08:03:38;1.25;;;1.05;;
65552;SDS011;72126;51.560;14.368;2023-12-20T08:06:04;1.52;;;1.08;;
65552;SDS011;72126;51.560;14.368;2023-12-20T08:08:29;1.00;;;0.90;;
65552;SDS011;72126;51.560;14.368;2023-12-20T08:10:54;1.30;;;1.10;;
65552;SDS011;72126;51.560;14.368;2023-12-20T08:13:20;0.83;;;0.83;;
65552;SDS011;72126;51.560;14.368;2023-12-20T08:15:45;1.55;;;1.10;;
65552;SDS011;72126;51.560;14.368;2023-12-20T08:18:10;1.30;;;1.07;;
65552;SDS011;72126;51.560;14.368;2023-12-20T08:20:35;1.07;;;0.93;;
65552;SDS011;72126;51.560;14.368;2023-12-20T08:23:00;1.03;;;0.93;;
65552;SDS011;72126;51.560;14.368;2023-12-20T08:25:26;2.40;;;1.07;;
65552;SDS011;72126;51.560;14.368;2023-12-20T08:27:51;1.00;;;0.90;;
65552;SDS011;72126;51.560;14.368;2023-12-20T08:30:16;1.20;;;1.10;;
65552;SDS011;72126;51.560;14.368;2023-12-20T08:32:41;1.40;;;1.00;;
65552;SDS011;72126;51.560;14.368;2023-12-20T08:35:06;1.07;;;0.90;;
65552;SDS011;72126;51.560;14.368;2023-12-20T08:37:32;2.10;;;1.13;;
65552;SDS011;72126;51.560;14.368;2023-12-20T08:39:57;1.20;;;0.93;;
65552;SDS011;72126;51.560;14.368;2023-12-20T08:42:22;1.40;;;1.20;;
65552;SDS011;72126;51.560;14.368;2023-12-20T08:44:47;1.10;;;1.00;;
65552;SDS011;72126;51.560;14.368;2023-12-20T08:47:12;0.90;;;0.90;;
65552;SDS011;72126;51.560;14.368;2023-12-20T08:49:38;1.33;;;1.10;;
65552;SDS011;72126;51.560;14.368;2023-12-20T08:52:06;1.30;;;1.00;;
65552;SDS011;72126;51.560;14.368;2023-12-20T08:54:31;1.40;;;1.10;;
65552;SDS011;72126;51.560;14.368;2023-12-20T08:56:56;1.33;;;1.00;;
65552;SDS011;72126;51.560;14.368;2023-12-20T08:59:21;1.85;;;1.20;;
65552;SDS011;72126;51.560;14.368;2023-12-20T09:01:47;2.63;;;1.13;;
65552;SDS011;72126;51.560;14.368;2023-12-20T09:04:12;0.97;;;0.93;;
65552;SDS011;72126;51.560;14.368;2023-12-20T09:06:37;1.87;;;1.13;;
65552;SDS011;72126;51.560;14.368;2023-12-20T09:09:02;1.33;;;1.10;;
65552;SDS011;72126;51.560;14.368;2023-12-20T09:11:27;1.27;;;1.05;;
65552;SDS011;72126;51.560;14.368;2023-12-20T09:13:53;1.20;;;1.10;;
65552;SDS011;72126;51.560;14.368;2023-12-20T09:16:18;2.90;;;1.20;;
65552;SDS011;72126;51.560;14.368;2023-12-20T09:18:43;1.90;;;1.00;;
65552;SDS011;72126;51.560;14.368;2023-12-20T09:21:08;1.13;;;1.00;;
65552;SDS011;72126;51.560;14.368;2023-12-20T09:23:33;1.30;;;1.00;;
65552;SDS011;72126;51.560;14.368;2023-12-20T09:25:59;1.80;;;1.20;;
65552;SDS011;72126;51.560;14.368;2023-12-20T09:28:24;1.80;;;1.10;;
65552;SDS011;72126;51.560;14.368;2023-12-20T09:30:49;1.50;;;1.30;;
65552;SDS011;72126;51.560;14.368;2023-12-20T09:33:14;1.38;;;0.98;;
65552;SDS011;72126;51.560;14.368;2023-12-20T09:35:40;1.60;;;1.10;;
65552;SDS011;72126;51.560;14.368;2023-12-20T09:38:05;1.77;;;1.40;;
65552;SDS011;72126;51.560;14.368;2023-12-20T09:40:30;2.43;;;1.10;;
65552;SDS011;72126;51.560;14.368;2023-12-20T09:42:57;1.52;;;1.05;;
65552;SDS011;72126;51.560;14.368;2023-12-20T09:45:27;2.17;;;1.10;;
65552;SDS011;72126;51.560;14.368;2023-12-20T09:47:52;1.77;;;1.20;;
65552;SDS011;72126;51.560;14.368;2023-12-20T09:50:19;0.80;;;0.80;;
65552;SDS011;72126;51.560;14.368;2023-12-20T09:52:46;1.02;;;0.90;;
65552;SDS011;72126;51.560;14.368;2023-12-20T09:55:17;1.05;;;0.90;;
65552;SDS011;72126;51.560;14.368;2023-12-20T09:57:42;1.20;;;1.10;;
65552;SDS011;72126;51.560;14.368;2023-12-20T10:00:08;1.13;;;0.90;;
65552;SDS011;72126;51.560;14.368;2023-12-20T10:02:34;1.10;;;0.98;;
65552;SDS011;72126;51.560;14.368;2023-12-20T10:05:01;1.60;;;1.10;;
65552;SDS011;72126;51.560;14.368;2023-12-20T10:07:27;1.42;;;0.90;;
65552;SDS011;72126;51.560;14.368;2023-12-20T10:09:52;1.00;;;0.90;;
65552;SDS011;72126;51.560;14.368;2023-12-20T10:12:19;1.23;;;1.10;;
65552;SDS011;72126;51.560;14.368;2023-12-20T10:14:44;1.83;;;1.10;;
65552;SDS011;72126;51.560;14.368;2023-12-20T10:17:10;1.77;;;1.10;;
65552;SDS011;72126;51.560;14.368;2023-12-20T10:19:36;1.25;;;0.90;;
65552;SDS011;72126;51.560;14.368;2023-12-20T10:22:03;1.08;;;1.00;;
65552;SDS011;72126;51.560;14.368;2023-12-20T10:24:29;1.05;;;1.00;;
65552;SDS011;72126;51.560;14.368;2023-12-20T10:27:04;2.22;;;0.90;;
65552;SDS011;72126;51.560;14.368;2023-12-20T10:29:33;1.30;;;1.05;;
65552;SDS011;72126;51.560;14.368;2023-12-20T10:32:00;1.02;;;1.00;;
65552;SDS011;72126;51.560;14.368;2023-12-20T10:34:35;0.95;;;0.90;;
65552;SDS011;72126;51.560;14.368;2023-12-20T10:37:00;2.47;;;1.00;;
65552;SDS011;72126;51.560;14.368;2023-12-20T10:39:25;1.10;;;0.80;;
65552;SDS011;72126;51.560;14.368;2023-12-20T10:41:50;1.00;;;0.90;;
65552;SDS011;72126;51.560;14.368;2023-12-20T10:44:16;2.17;;;1.00;;
65552;SDS011;72126;51.560;14.368;2023-12-20T10:46:41;0.80;;;0.80;;
65552;SDS011;72126;51.560;14.368;2023-12-20T10:49:06;1.23;;;0.90;;
65552;SDS011;72126;51.560;14.368;2023-12-20T10:51:33;2.30;;;1.15;;
65552;SDS011;72126;51.560;14.368;2023-12-20T10:53:58;1.35;;;1.17;;
65552;SDS011;72126;51.560;14.368;2023-12-20T10:56:24;0.80;;;0.80;;
65552;SDS011;72126;51.560;14.368;2023-12-20T11:01:21;2.42;;;1.00;;
65552;SDS011;72126;51.560;14.368;2023-12-20T11:06:24;1.20;;;1.00;;
65552;SDS011;72126;51.560;14.368;2023-12-20T11:09:08;1.15;;;0.90;;
65552;SDS011;72126;51.560;14.368;2023-12-20T11:11:49;1.40;;;0.90;;
65552;SDS011;72126;51.560;14.368;2023-12-20T11:14:27;0.98;;;0.90;;
65552;SDS011;72126;51.560;14.368;2023-12-20T11:17:09;1.60;;;0.80;;
65552;SDS011;72126;51.560;14.368;2023-12-20T11:19:38;0.98;;;0.93;;
65552;SDS011;72126;51.560;14.368;2023-12-20T11:22:31;1.20;;;0.80;;
65552;SDS011;72126;51.560;14.368;2023-12-20T11:25:03;1.67;;;0.80;;
65552;SDS011;72126;51.560;14.368;2023-12-20T11:27:30;3.55;;;0.82;;
65552;SDS011;72126;51.560;14.368;2023-12-20T11:29:56;1.33;;;1.00;;
65552;SDS011;72126;51.560;14.368;2023-12-20T11:34:51;1.52;;;0.90;;
65552;SDS011;72126;51.560;14.368;2023-12-20T11:37:19;1.00;;;0.90;;
65552;SDS011;72126;51.560;14.368;2023-12-20T11:39:44;1.05;;;0.90;;
65552;SDS011;72126;51.560;14.368;2023-12-20T11:42:10;1.17;;;1.00;;
65552;SDS011;72126;51.560;14.368;2023-12-20T11:44:36;1.37;;;0.90;;
65552;SDS011;72126;51.560;14.368;2023-12-20T11:47:01;0.93;;;0.88;;
65552;SDS011;72126;51.560;14.368;2023-12-20T11:49:27;1.20;;;0.80;;
65552;SDS011;72126;51.560;14.368;2023-12-20T11:51:52;1.23;;;0.93;;
65552;SDS011;72126;51.560;14.368;2023-12-20T11:54:17;2.55;;;1.00;;
65552;SDS011;72126;51.560;14.368;2023-12-20T11:56:43;1.63;;;0.90;;
65552;SDS011;72126;51.560;14.368;2023-12-20T11:59:08;1.05;;;1.00;;
65552;SDS011;72126;51.560;14.368;2023-12-20T12:01:33;1.10;;;0.80;;
65552;SDS011;72126;51.560;14.368;2023-12-20T12:04:02;0.97;;;0.80;;
65552;SDS011;72126;51.560;14.368;2023-12-20T12:06:28;1.05;;;0.90;;
65552;SDS011;72126;51.560;14.368;2023-12-20T12:08:54;2.78;;;1.10;;
65552;SDS011;72126;51.560;14.368;2023-12-20T12:11:19;1.40;;;0.82;;
65552;SDS011;72126;51.560;14.368;2023-12-20T12:13:44;1.45;;;0.80;;
65552;SDS011;72126;51.560;14.368;2023-12-20T12:16:10;1.58;;;0.90;;
65552;SDS011;72126;51.560;14.368;2023-12-20T12:18:35;1.00;;;0.90;;
65552;SDS011;72126;51.560;14.368;2023-12-20T12:21:00;1.30;;;0.90;;
65552;SDS011;72126;51.560;14.368;2023-12-20T12:23:26;0.80;;;0.80;;
65552;SDS011;72126;51.560;14.368;2023-12-20T12:25:51;1.63;;;0.83;;
65552;SDS011;72126;51.560;14.368;2023-12-20T12:28:16;2.15;;;0.90;;
65552;SDS011;72126;51.560;14.368;2023-12-20T12:30:41;1.00;;;0.80;;
65552;SDS011;72126;51.560;14.368;2023-12-20T12:33:07;1.00;;;0.90;;
65552;SDS011;72126;51.560;14.368;2023-12-20T12:35:32;1.40;;;0.80;;
65552;SDS011;72126;51.560;14.368;2023-12-20T12:37:58;2.43;;;0.80;;
65552;SDS011;72126;51.560;14.368;2023-12-20T12:40:23;1.38;;;0.90;;
65552;SDS011;72126;51.560;14.368;2023-12-20T12:42:49;1.20;;;0.80;;
65552;SDS011;72126;51.560;14.368;2023-12-20T12:45:14;2.07;;;0.80;;
65552;SDS011;72126;51.560;14.368;2023-12-20T12:47:39;0.80;;;0.80;;
65552;SDS011;72126;51.560;14.368;2023-12-20T12:50:05;1.00;;;0.90;;
65552;SDS011;72126;51.560;14.368;2023-12-20T12:52:30;2.03;;;0.80;;
65552;SDS011;72126;51.560;14.368;2023-12-20T12:54:56;0.90;;;0.90;;
65552;SDS011;72126;51.560;14.368;2023-12-20T12:57:21;1.90;;;0.90;;
65552;SDS011;72126;51.560;14.368;2023-12-20T12:59:47;0.90;;;0.90;;
65552;SDS011;72126;51.560;14.368;2023-12-20T13:02:12;1.00;;;0.90;;
65552;SDS011;72126;51.560;14.368;2023-12-20T13:04:38;0.88;;;0.77;;
65552;SDS011;72126;51.560;14.368;2023-12-20T13:07:03;1.37;;;1.00;;
65552;SDS011;72126;51.560;14.368;2023-12-20T13:09:28;0.70;;;0.70;;
65552;SDS011;72126;51.560;14.368;2023-12-20T13:11:54;1.10;;;0.90;;
65552;SDS011;72126;51.560;14.368;2023-12-20T13:14:19;1.57;;;0.93;;
65552;SDS011;72126;51.560;14.368;2023-12-20T13:16:44;0.83;;;0.70;;
65552;SDS011;72126;51.560;14.368;2023-12-20T13:19:09;2.57;;;0.90;;
65552;SDS011;72126;51.560;14.368;2023-12-20T13:21:35;0.88;;;0.80;;
65552;SDS011;72126;51.560;14.368;2023-12-20T13:24:00;1.00;;;0.90;;
65552;SDS011;72126;51.560;14.368;2023-12-20T13:26:25;2.63;;;0.90;;
65552;SDS011;72126;51.560;14.368;2023-12-20T13:28:50;0.95;;;0.90;;
65552;SDS011;72126;51.560;14.368;2023-12-20T13:31:16;2.17;;;1.00;;
65552;SDS011;72126;51.560;14.368;2023-12-20T13:33:41;2.10;;;0.90;;
65552;SDS011;72126;51.560;14.368;2023-12-20T13:36:06;3.03;;;1.10;;
65552;SDS011;72126;51.560;14.368;2023-12-20T13:38:32;0.70;;;0.70;;
65552;SDS011;72126;51.560;14.368;2023-12-20T13:40:57;1.15;;;1.00;;
65552;SDS011;72126;51.560;14.368;2023-12-20T13:43:22;1.15;;;0.73;;
65552;SDS011;72126;51.560;14.368;2023-12-20T13:45:47;1.30;;;1.00;;
65552;SDS011;72126;51.560;14.368;2023-12-20T13:48:13;1.95;;;0.85;;
65552;SDS011;72126;51.560;14.368;2023-12-20T13:50:38;3.13;;;1.08;;
65552;SDS011;72126;51.560;14.368;2023-12-20T13:53:03;5.70;;;1.00;;
65552;SDS011;72126;51.560;14.368;2023-12-20T13:55:29;5.43;;;1.10;;
65552;SDS011;72126;51.560;14.368;2023-12-20T13:57:54;2.53;;;0.90;;
65552;SDS011;72126;51.560;14.368;2023-12-20T14:00:19;2.77;;;0.90;;
65552;SDS011;72126;51.560;14.368;2023-12-20T14:02:44;2.00;;;1.03;;
65552;SDS011;72126;51.560;14.368;2023-12-20T14:05:09;1.40;;;1.00;;
65552;SDS011;72126;51.560;14.368;2023-12-20T14:07:35;2.35;;;1.13;;
65552;SDS011;72126;51.560;14.368;2023-12-20T14:10:00;1.15;;;1.02;;
65552;SDS011;72126;51.560;14.368;2023-12-20T14:12:25;1.02;;;0.93;;
65552;SDS011;72126;51.560;14.368;2023-12-20T14:14:50;4.10;;;1.23;;
65552;SDS011;72126;51.560;14.368;2023-12-20T14:17:16;3.43;;;1.10;;
65552;SDS011;72126;51.560;14.368;2023-12-20T14:19:42;2.55;;;0.80;;
65552;SDS011;72126;51.560;14.368;2023-12-20T14:22:07;2.07;;;1.03;;
65552;SDS011;72126;51.560;14.368;2023-12-20T14:24:32;2.63;;;1.07;;
65552;SDS011;72126;51.560;14.368;2023-12-20T14:26:57;2.97;;;0.90;;
65552;SDS011;72126;51.560;14.368;2023-12-20T14:29:23;1.43;;;0.73;;
65552;SDS011;72126;51.560;14.368;2023-12-20T14:31:48;2.20;;;0.90;;